sensor_id;sensor_type;location;lat;lon;timestamp;pressure;altitude;pressure_sealevel;temperature;humidity
34566;BME280;20803;42.676;26.348;2024-03-02T00:02:13;98376.00;;;10.67;100.00
34566;BME280;20803;42.676;26.348;2024-03-02T00:04:39;98376.34;;;10.69;100.00
34566;BME280;20803;42.676;26.348;2024-03-02T00:07:06;98379.88;;;10.73;100.00
34566;BME280;20803;42.676;26.348;2024-03-02T00:09:32;98390.13;;;10.76;100.00
34566;BME280;20803;42.676;26.348;2024-03-02T00:12:01;98382.28;;;10.71;100.00
34566;BME280;20803;42.676;26.348;2024-03-02T00:14:30;98381.81;;;10.49;100.00
34566;BME280;20803;42.676;26.348;2024-03-02T00:16:56;98385.69;;;10.28;100.00
34566;BME280;20803;42.676;26.348;2024-03-02T00:19:22;98379.34;;;10.28;100.00
34566;BME280;20803;42.676;26.348;2024-03-02T00:21:48;98377.59;;;10.37;100.00
34566;BME280;20803;42.676;26.348;2024-03-02T00:24:31;98376.78;;;10.40;100.00
34566;BME280;20803;42.676;26.348;2024-03-02T00:26:56;98373.38;;;10.29;100.00
34566;BME280;20803;42.676;26.348;2024-03-02T00:29:22;98368.56;;;10.33;100.00
34566;BME280;20803;42.676;26.348;2024-03-02T00:31:48;98364.97;;;10.33;100.00
34566;BME280;20803;42.676;26.348;2024-03-02T00:34:14;98358.22;;;10.34;100.00
34566;BME280;20803;42.676;26.348;2024-03-02T00:36:41;98361.38;;;10.36;100.00
34566;BME280;20803;42.676;26.348;2024-03-02T00:39:07;98366.84;;;10.43;100.00
34566;BME280;20803;42.676;26.348;2024-03-02T00:41:33;98355.75;;;10.39;100.00
34566;BME280;20803;42.676;26.348;2024-03-02T00:44:03;98345.50;;;10.36;100.00
34566;BME280;20803;42.676;26.348;2024-03-02T00:46:33;98347.22;;;10.27;100.00
34566;BME280;20803;42.676;26.348;2024-03-02T00:49:16;98351.88;;;10.33;100.00
34566;BME280;20803;42.676;26.348;2024-03-02T00:51:46;98354.09;;;10.45;100.00
34566;BME280;20803;42.676;26.348;2024-03-02T00:54:13;98350.28;;;10.36;100.00
34566;BME280;20803;42.676;26.348;2024-03-02T00:56:41;98348.53;;;10.45;100.00
34566;BME280;20803;42.676;26.348;2024-03-02T00:59:07;98345.34;;;10.47;100.00
34566;BME280;20803;42.676;26.348;2024-03-02T01:01:34;98331.38;;;10.50;100.00
34566;BME280;20803;42.676;26.348;2024-03-02T01:03:59;98328.88;;;10.60;100.00
34566;BME280;20803;42.676;26.348;2024-03-02T01:06:25;98323.66;;;10.62;100.00
34566;BME280;20803;42.676;26.348;2024-03-02T01:08:51;98310.72;;;10.51;100.00
34566;BME280;20803;42.676;26.348;2024-03-02T01:11:17;98324.72;;;10.44;100.00
34566;BME280;20803;42.676;26.348;2024-03-02T01:13:43;98315.75;;;10.37;100.00
34566;BME280;20803;42.676;26.348;2024-03-02T01:16:09;98310.81;;;10.21;100.00
34566;BME280;20803;42.676;26.348;2024-03-02T01:18:34;98314.44;;;10.14;100.00
34566;BME280;20803;42.676;26.348;2024-03-02T01:21:00;98312.44;;;10.18;100.00
34566;BME280;20803;42.676;26.348;2024-03-02T01:23:26;98317.66;;;9.83;100.00
34566;BME280;20803;42.676;26.348;2024-03-02T01:25:52;98326.19;;;9.68;100.00
34566;BME280;20803;42.676;26.348;2024-03-02T01:28:18;98330.00;;;9.82;100.00
34566;BME280;20803;42.676;26.348;2024-03-02T01:30:47;98326.81;;;9.15;100.00
34566;BME280;20803;42.676;26.348;2024-03-02T01:33:13;98317.28;;;9.16;100.00
34566;BME280;20803;42.676;26.348;2024-03-02T01:35:38;98316.59;;;9.09;100.00
34566;BME280;20803;42.676;26.348;2024-03-02T01:38:04;98319.00;;;9.03;100.00
34566;BME280;20803;42.676;26.348;2024-03-02T01:40:34;98311.09;;;9.05;100.00
34566;BME280;20803;42.676;26.348;2024-03-02T01:43:00;98318.00;;;9.24;100.00
34566;BME280;20803;42.676;26.348;2024-03-02T01:45:25;98313.38;;;9.48;100.00
34566;BME280;20803;42.676;26.348;2024-03-02T01:47:52;98311.22;;;9.62;100.00
34566;BME280;20803;42.676;26.348;2024-03-02T01:50:28;98316.22;;;9.74;100.00
34566;BME280;20803;42.676;26.348;2024-03-02T01:52:55;98306.16;;;9.84;100.00
34566;BME280;20803;42.676;26.348;2024-03-02T01:55:20;98302.00;;;9.99;100.00
34566;BME280;20803;42.676;26.348;2024-03-02T01:57:47;98298.69;;;10.08;100.00
34566;BME280;20803;42.676;26.348;2024-03-02T02:00:13;98300.97;;;10.13;100.00
34566;BME280;20803;42.676;26.348;2024-03-02T02:02:39;98305.19;;;9.98;100.00
34566;BME280;20803;42.676;26.348;2024-03-02T02:05:05;98295.34;;;10.20;100.00
34566;BME280;20803;42.676;26.348;2024-03-02T02:07:30;98293.63;;;10.30;100.00
34566;BME280;20803;42.676;26.348;2024-03-02T02:09:57;98285.00;;;10.24;100.00
34566;BME280;20803;42.676;26.348;2024-03-02T02:12:22;98286.50;;;10.29;100.00
34566;BME280;20803;42.676;26.348;2024-03-02T02:14:49;98286.31;;;10.12;100.00
34566;BME280;20803;42.676;26.348;2024-03-02T02:17:16;98288.13;;;9.99;100.00
34566;BME280;20803;42.676;26.348;2024-03-02T02:19:42;98287.91;;;9.56;100.00
34566;BME280;20803;42.676;26.348;2024-03-02T02:22:08;98280.00;;;9.24;100.00
34566;BME280;20803;42.676;26.348;2024-03-02T02:24:34;98287.66;;;9.10;100.00
34566;BME280;20803;42.676;26.348;2024-03-02T02:26:59;98290.78;;;9.15;100.00
34566;BME280;20803;42.676;26.348;2024-03-02T02:29:25;98307.13;;;9.40;100.00
34566;BME280;20803;42.676;26.348;2024-03-02T02:31:50;98312.53;;;9.17;100.00
34566;BME280;20803;42.676;26.348;2024-03-02T02:34:16;98312.06;;;8.84;100.00
34566;BME280;20803;42.676;26.348;2024-03-02T02:36:42;98301.69;;;8.95;100.00
34566;BME280;20803;42.676;26.348;2024-03-02T02:39:11;98312.66;;;9.06;100.00
34566;BME280;20803;42.676;26.348;2024-03-02T02:41:39;98333.84;;;9.23;100.00
34566;BME280;20803;42.676;26.348;2024-03-02T02:44:05;98334.66;;;9.24;100.00
34566;BME280;20803;42.676;26.348;2024-03-02T02:46:30;98333.41;;;9.28;100.00
34566;BME280;20803;42.676;26.348;2024-03-02T02:48:56;98336.81;;;9.43;100.00
34566;BME280;20803;42.676;26.348;2024-03-02T02:51:22;98322.53;;;9.45;100.00
34566;BME280;20803;42.676;26.348;2024-03-02T02:53:47;98331.00;;;9.64;100.00
34566;BME280;20803;42.676;26.348;2024-03-02T02:56:13;98339.28;;;9.68;100.00
34566;BME280;20803;42.676;26.348;2024-03-02T02:58:40;98324.81;;;9.84;100.00
34566;BME280;20803;42.676;26.348;2024-03-02T03:01:06;98321.09;;;9.94;100.00
34566;BME280;20803;42.676;26.348;2024-03-02T03:03:33;98318.13;;;10.08;100.00
34566;BME280;20803;42.676;26.348;2024-03-02T03:05:58;98325.56;;;10.18;100.00
34566;BME280;20803;42.676;26.348;2024-03-02T03:08:24;98321.66;;;10.12;100.00
34566;BME280;20803;42.676;26.348;2024-03-02T03:10:49;98321.53;;;10.19;100.00
34566;BME280;20803;42.676;26.348;2024-03-02T03:13:15;98312.00;;;10.20;100.00
34566;BME280;20803;42.676;26.348;2024-03-02T03:15:41;98321.50;;;10.23;100.00
34566;BME280;20803;42.676;26.348;2024-03-02T03:18:06;98327.88;;;10.20;100.00
34566;BME280;20803;42.676;26.348;2024-03-02T03:20:35;98337.88;;;10.13;100.00
34566;BME280;20803;42.676;26.348;2024-03-02T03:23:01;98337.38;;;10.22;100.00
34566;BME280;20803;42.676;26.348;2024-03-02T03:25:27;98343.63;;;10.30;100.00
34566;BME280;20803;42.676;26.348;2024-03-02T03:27:52;98351.75;;;10.17;100.00
34566;BME280;20803;42.676;26.348;2024-03-02T03:30:18;98342.63;;;10.16;100.00
34566;BME280;20803;42.676;26.348;2024-03-02T03:32:44;98351.28;;;10.18;100.00
34566;BME280;20803;42.676;26.348;2024-03-02T03:35:09;98352.63;;;10.07;100.00
34566;BME280;20803;42.676;26.348;2024-03-02T03:37:35;98352.94;;;10.12;100.00
34566;BME280;20803;42.676;26.348;2024-03-02T03:40:02;98352.53;;;10.18;100.00
34566;BME280;20803;42.676;26.348;2024-03-02T03:42:28;98348.56;;;10.15;100.00
34566;BME280;20803;42.676;26.348;2024-03-02T03:44:54;98342.63;;;10.13;100.00
34566;BME280;20803;42.676;26.348;2024-03-02T03:47:19;98337.41;;;10.18;100.00
34566;BME280;20803;42.676;26.348;2024-03-02T03:49:45;98336.50;;;10.29;100.00
34566;BME280;20803;42.676;26.348;2024-03-02T03:52:11;98330.88;;;10.32;100.00
34566;BME280;20803;42.676;26.348;2024-03-02T03:54:36;98327.28;;;10.35;100.00
34566;BME280;20803;42.676;26.348;2024-03-02T03:57:03;98326.06;;;10.36;100.00
34566;BME280;20803;42.676;26.348;2024-03-02T03:59:29;98323.22;;;10.40;100.00
34566;BME280;20803;42.676;26.348;2024-03-02T04:01:54;98321.94;;;10.44;100.00
34566;BME280;20803;42.676;26.348;2024-03-02T04:04:20;98310.72;;;10.51;100.00
34566;BME280;20803;42.676;26.348;2024-03-02T04:06:45;98305.16;;;10.28;100.00
34566;BME280;20803;42.676;26.348;2024-03-02T04:09:11;98294.56;;;10.20;100.00
34566;BME280;20803;42.676;26.348;2024-03-02T04:11:37;98288.91;;;10.27;100.00
34566;BME280;20803;42.676;26.348;2024-03-02T04:14:02;98285.91;;;10.18;100.00
34566;BME280;20803;42.676;26.348;2024-03-02T04:16:28;98289.06;;;10.16;100.00
34566;BME280;20803;42.676;26.348;2024-03-02T04:18:54;98289.56;;;10.07;100.00
34566;BME280;20803;42.676;26.348;2024-03-02T04:21:19;98302.56;;;10.14;100.00
34566;BME280;20803;42.676;26.348;2024-03-02T04:23:46;98302.72;;;10.03;100.00
34566;BME280;20803;42.676;26.348;2024-03-02T04:26:12;98303.72;;;9.90;100.00
34566;BME280;20803;42.676;26.348;2024-03-02T04:28:38;98307.84;;;9.78;100.00
34566;BME280;20803;42.676;26.348;2024-03-02T04:31:03;98301.19;;;9.72;100.00
34566;BME280;20803;42.676;26.348;2024-03-02T04:33:28;98301.59;;;9.70;100.00
34566;BME280;20803;42.676;26.348;2024-03-02T04:35:54;98310.06;;;9.60;100.00
34566;BME280;20803;42.676;26.348;2024-03-02T04:38:19;98301.41;;;9.54;100.00
34566;BME280;20803;42.676;26.348;2024-03-02T04:40:45;98299.75;;;9.60;100.00
34566;BME280;20803;42.676;26.348;2024-03-02T04:43:10;98296.16;;;9.63;100.00
34566;BME280;20803;42.676;26.348;2024-03-02T04:45:40;98290.03;;;9.75;100.00
34566;BME280;20803;42.676;26.348;2024-03-02T04:48:06;98294.19;;;9.91;100.00
34566;BME280;20803;42.676;26.348;2024-03-02T04:50:31;98299.22;;;9.99;100.00
34566;BME280;20803;42.676;26.348;2024-03-02T04:52:57;98303.50;;;10.04;100.00
34566;BME280;20803;42.676;26.348;2024-03-02T04:55:22;98295.50;;;10.09;100.00
34566;BME280;20803;42.676;26.348;2024-03-02T04:57:53;98295.00;;;10.18;100.00
34566;BME280;20803;42.676;26.348;2024-03-02T05:00:22;98298.88;;;10.24;100.00
34566;BME280;20803;42.676;26.348;2024-03-02T05:02:48;98302.38;;;10.28;100.00
34566;BME280;20803;42.676;26.348;2024-03-02T05:05:13;98310.28;;;10.30;100.00
34566;BME280;20803;42.676;26.348;2024-03-02T05:07:40;98316.63;;;10.30;100.00
34566;BME280;20803;42.676;26.348;2024-03-02T05:10:08;98323.31;;;10.33;100.00
34566;BME280;20803;42.676;26.348;2024-03-02T05:12:34;98321.53;;;10.19;100.00
34566;BME280;20803;42.676;26.348;2024-03-02T05:15:20;98331.97;;;10.11;100.00
34566;BME280;20803;42.676;26.348;2024-03-02T05:17:47;98332.56;;;9.96;100.00
34566;BME280;20803;42.676;26.348;2024-03-02T05:20:12;98346.19;;;9.87;100.00
34566;BME280;20803;42.676;26.348;2024-03-02T05:22:38;98348.25;;;9.79;100.00
34566;BME280;20803;42.676;26.348;2024-03-02T05:25:05;98361.00;;;9.73;100.00
34566;BME280;20803;42.676;26.348;2024-03-02T05:27:30;98369.50;;;9.59;100.00
34566;BME280;20803;42.676;26.348;2024-03-02T05:29:58;98362.28;;;9.68;100.00
34566;BME280;20803;42.676;26.348;2024-03-02T05:32:24;98380.81;;;9.75;100.00
34566;BME280;20803;42.676;26.348;2024-03-02T05:34:49;98380.34;;;9.80;100.00
34566;BME280;20803;42.676;26.348;2024-03-02T05:37:16;98378.22;;;9.91;100.00
34566;BME280;20803;42.676;26.348;2024-03-02T05:39:42;98370.38;;;9.86;100.00
34566;BME280;20803;42.676;26.348;2024-03-02T05:42:09;98362.44;;;9.85;100.00
34566;BME280;20803;42.676;26.348;2024-03-02T05:44:37;98357.84;;;9.74;100.00
34566;BME280;20803;42.676;26.348;2024-03-02T05:47:03;98358.28;;;9.69;100.00
34566;BME280;20803;42.676;26.348;2024-03-02T05:49:29;98353.94;;;9.68;100.00
34566;BME280;20803;42.676;26.348;2024-03-02T05:51:55;98355.00;;;9.78;100.00
34566;BME280;20803;42.676;26.348;2024-03-02T05:54:20;98357.19;;;9.63;100.00
34566;BME280;20803;42.676;26.348;2024-03-02T05:56:46;98352.50;;;9.57;100.00
34566;BME280;20803;42.676;26.348;2024-03-02T05:59:11;98354.94;;;9.51;100.00
34566;BME280;20803;42.676;26.348;2024-03-02T06:01:45;98357.72;;;9.51;100.00
34566;BME280;20803;42.676;26.348;2024-03-02T06:04:15;98352.34;;;9.37;100.00
34566;BME280;20803;42.676;26.348;2024-03-02T06:06:41;98348.56;;;9.54;100.00
34566;BME280;20803;42.676;26.348;2024-03-02T06:09:07;98345.63;;;9.68;100.00
34566;BME280;20803;42.676;26.348;2024-03-02T06:11:34;98338.03;;;9.72;100.00
34566;BME280;20803;42.676;26.348;2024-03-02T06:13:59;98332.25;;;9.90;100.00
34566;BME280;20803;42.676;26.348;2024-03-02T06:16:25;98323.50;;;9.92;100.00
34566;BME280;20803;42.676;26.348;2024-03-02T06:18:50;98312.22;;;10.06;100.00
34566;BME280;20803;42.676;26.348;2024-03-02T06:21:16;98314.44;;;10.18;100.00
34566;BME280;20803;42.676;26.348;2024-03-02T06:23:43;98303.69;;;10.20;100.00
34566;BME280;20803;42.676;26.348;2024-03-02T06:26:09;98315.53;;;10.24;100.00
34566;BME280;20803;42.676;26.348;2024-03-02T06:28:34;98310.75;;;10.25;100.00
34566;BME280;20803;42.676;26.348;2024-03-02T06:31:01;98312.78;;;10.24;100.00
34566;BME280;20803;42.676;26.348;2024-03-02T06:33:27;98308.31;;;10.30;100.00
34566;BME280;20803;42.676;26.348;2024-03-02T06:35:54;98310.19;;;10.37;100.00
34566;BME280;20803;42.676;26.348;2024-03-02T06:38:19;98305.84;;;10.36;100.00
34566;BME280;20803;42.676;26.348;2024-03-02T06:40:45;98293.94;;;10.35;100.00
34566;BME280;20803;42.676;26.348;2024-03-02T06:43:10;98285.00;;;10.47;100.00
34566;BME280;20803;42.676;26.348;2024-03-02T06:45:36;98275.00;;;10.53;100.00
34566;BME280;20803;42.676;26.348;2024-03-02T06:48:02;98274.63;;;10.51;100.00
34566;BME280;20803;42.676;26.348;2024-03-02T06:50:27;98269.44;;;10.53;100.00
34566;BME280;20803;42.676;26.348;2024-03-02T06:52:53;98253.97;;;10.52;100.00
34566;BME280;20803;42.676;26.348;2024-03-02T06:55:19;98263.03;;;10.56;100.00
34566;BME280;20803;42.676;26.348;2024-03-02T06:57:45;98269.31;;;10.61;100.00
34566;BME280;20803;42.676;26.348;2024-03-02T07:00:11;98278.00;;;10.63;100.00
34566;BME280;20803;42.676;26.348;2024-03-02T07:02:36;98286.16;;;10.50;100.00
34566;BME280;20803;42.676;26.348;2024-03-02T07:05:02;98285.00;;;10.47;100.00
34566;BME280;20803;42.676;26.348;2024-03-02T07:07:29;98290.00;;;10.33;100.00
34566;BME280;20803;42.676;26.348;2024-03-02T07:09:54;98311.84;;;10.31;100.00
34566;BME280;20803;42.676;26.348;2024-03-02T07:12:20;98302.41;;;10.25;100.00
34566;BME280;20803;42.676;26.348;2024-03-02T07:14:45;98298.91;;;10.21;100.00
34566;BME280;20803;42.676;26.348;2024-03-02T07:17:33;98311.63;;;10.45;100.00
34566;BME280;20803;42.676;26.348;2024-03-02T07:19:59;98306.34;;;10.54;100.00
34566;BME280;20803;42.676;26.348;2024-03-02T07:22:24;98293.25;;;10.28;100.00
34566;BME280;20803;42.676;26.348;2024-03-02T07:24:50;98294.41;;;10.03;100.00
34566;BME280;20803;42.676;26.348;2024-03-02T07:27:16;98307.88;;;10.05;100.00
34566;BME280;20803;42.676;26.348;2024-03-02T07:29:43;98308.53;;;10.12;100.00
34566;BME280;20803;42.676;26.348;2024-03-02T07:32:09;98316.69;;;9.96;100.00
34566;BME280;20803;42.676;26.348;2024-03-02T07:34:35;98311.44;;;10.05;100.00
34566;BME280;20803;42.676;26.348;2024-03-02T07:37:01;98306.19;;;10.11;100.00
34566;BME280;20803;42.676;26.348;2024-03-02T07:39:27;98312.53;;;10.11;100.00
34566;BME280;20803;42.676;26.348;2024-03-02T07:41:53;98326.84;;;9.80;100.00
34566;BME280;20803;42.676;26.348;2024-03-02T07:44:18;98322.13;;;9.76;100.00
34566;BME280;20803;42.676;26.348;2024-03-02T07:46:45;98294.66;;;9.86;100.00
34566;BME280;20803;42.676;26.348;2024-03-02T07:49:18;98292.88;;;9.99;100.00
34566;BME280;20803;42.676;26.348;2024-03-02T07:51:44;98306.53;;;9.86;100.00
34566;BME280;20803;42.676;26.348;2024-03-02T07:54:09;98305.91;;;10.02;100.00
34566;BME280;20803;42.676;26.348;2024-03-02T07:56:35;98315.56;;;10.21;100.00
34566;BME280;20803;42.676;26.348;2024-03-02T07:59:04;98309.38;;;10.09;100.00
34566;BME280;20803;42.676;26.348;2024-03-02T08:01:31;98314.41;;;9.91;100.00
34566;BME280;20803;42.676;26.348;2024-03-02T08:03:57;98324.19;;;9.99;100.00
34566;BME280;20803;42.676;26.348;2024-03-02T08:06:27;98308.34;;;10.00;100.00
34566;BME280;20803;42.676;26.348;2024-03-02T08:08:56;98311.78;;;10.07;100.00
34566;BME280;20803;42.676;26.348;2024-03-02T08:11:22;98333.19;;;10.07;100.00
34566;BME280;20803;42.676;26.348;2024-03-02T08:13:48;98319.06;;;9.98;100.00
34566;BME280;20803;42.676;26.348;2024-03-02T08:16:17;98326.09;;;10.06;100.00
34566;BME280;20803;42.676;26.348;2024-03-02T08:18:49;98322.25;;;9.96;100.00
34566;BME280;20803;42.676;26.348;2024-03-02T08:21:15;98316.56;;;9.76;100.00
34566;BME280;20803;42.676;26.348;2024-03-02T08:23:42;98315.97;;;9.92;100.00
34566;BME280;20803;42.676;26.348;2024-03-02T08:26:08;98318.53;;;10.06;100.00
34566;BME280;20803;42.676;26.348;2024-03-02T08:28:34;98329.78;;;10.26;100.00
34566;BME280;20803;42.676;26.348;2024-03-02T08:31:00;98342.41;;;10.31;100.00
34566;BME280;20803;42.676;26.348;2024-03-02T08:33:25;98337.22;;;10.33;100.00
34566;BME280;20803;42.676;26.348;2024-03-02T08:35:51;98315.06;;;10.29;100.00
34566;BME280;20803;42.676;26.348;2024-03-02T08:38:17;98338.63;;;10.44;100.00
34566;BME280;20803;42.676;26.348;2024-03-02T08:40:42;98350.28;;;10.36;100.00
34566;BME280;20803;42.676;26.348;2024-03-02T08:43:08;98331.56;;;10.40;100.00
34566;BME280;20803;42.676;26.348;2024-03-02T08:45:33;98344.78;;;10.55;100.00
34566;BME280;20803;42.676;26.348;2024-03-02T08:48:00;98339.06;;;10.66;100.00
34566;BME280;20803;42.676;26.348;2024-03-02T08:50:25;98341.06;;;10.66;100.00
34566;BME280;20803;42.676;26.348;2024-03-02T08:52:51;98334.41;;;10.83;100.00
34566;BME280;20803;42.676;26.348;2024-03-02T08:55:17;98325.97;;;10.90;100.00
34566;BME280;20803;42.676;26.348;2024-03-02T08:57:42;98341.28;;;10.98;100.00
34566;BME280;20803;42.676;26.348;2024-03-02T09:00:08;98351.31;;;10.92;100.00
34566;BME280;20803;42.676;26.348;2024-03-02T09:02:34;98363.91;;;11.00;100.00
34566;BME280;20803;42.676;26.348;2024-03-02T09:05:00;98346.03;;;10.78;100.00
34566;BME280;20803;42.676;26.348;2024-03-02T09:07:26;98350.50;;;10.72;100.00
34566;BME280;20803;42.676;26.348;2024-03-02T09:09:51;98360.75;;;10.75;100.00
34566;BME280;20803;42.676;26.348;2024-03-02T09:12:18;98340.06;;;10.79;100.00
34566;BME280;20803;42.676;26.348;2024-03-02T09:14:44;98355.03;;;10.85;100.00
34566;BME280;20803;42.676;26.348;2024-03-02T09:17:10;98347.22;;;10.77;100.00
34566;BME280;20803;42.676;26.348;2024-03-02T09:19:36;98347.41;;;10.66;100.00
34566;BME280;20803;42.676;26.348;2024-03-02T09:22:02;98355.44;;;10.61;100.00
34566;BME280;20803;42.676;26.348;2024-03-02T09:24:31;98335.44;;;10.69;100.00
34566;BME280;20803;42.676;26.348;2024-03-02T09:26:58;98310.09;;;10.67;100.00
34566;BME280;20803;42.676;26.348;2024-03-02T09:29:24;98340.81;;;10.80;100.00
34566;BME280;20803;42.676;26.348;2024-03-02T09:31:49;98349.00;;;10.90;100.00
34566;BME280;20803;42.676;26.348;2024-03-02T09:34:16;98317.78;;;11.03;100.00
34566;BME280;20803;42.676;26.348;2024-03-02T09:36:42;98326.94;;;11.03;100.00
34566;BME280;20803;42.676;26.348;2024-03-02T09:39:08;98325.56;;;11.11;100.00
34566;BME280;20803;42.676;26.348;2024-03-02T09:41:38;98328.09;;;11.25;100.00
34566;BME280;20803;42.676;26.348;2024-03-02T09:44:04;98326.53;;;11.44;100.00
34566;BME280;20803;42.676;26.348;2024-03-02T09:46:31;98324.53;;;11.45;100.00
34566;BME280;20803;42.676;26.348;2024-03-02T09:48:56;98331.81;;;11.38;100.00
34566;BME280;20803;42.676;26.348;2024-03-02T09:51:22;98326.16;;;11.42;100.00
34566;BME280;20803;42.676;26.348;2024-03-02T09:53:49;98330.09;;;11.45;100.00
34566;BME280;20803;42.676;26.348;2024-03-02T09:56:15;98332.16;;;11.40;100.00
34566;BME280;20803;42.676;26.348;2024-03-02T09:58:46;98345.13;;;11.47;100.00
34566;BME280;20803;42.676;26.348;2024-03-02T10:01:12;98336.88;;;11.63;100.00
34566;BME280;20803;42.676;26.348;2024-03-02T10:03:38;98339.53;;;11.70;100.00
34566;BME280;20803;42.676;26.348;2024-03-02T10:08:45;98322.53;;;11.85;100.00
34566;BME280;20803;42.676;26.348;2024-03-02T10:11:11;98326.09;;;11.85;100.00
34566;BME280;20803;42.676;26.348;2024-03-02T10:13:36;98331.44;;;11.96;100.00
34566;BME280;20803;42.676;26.348;2024-03-02T10:16:11;98334.44;;;12.05;100.00
34566;BME280;20803;42.676;26.348;2024-03-02T10:18:37;98318.34;;;12.12;100.00
34566;BME280;20803;42.676;26.348;2024-03-02T10:21:15;98326.97;;;12.18;100.00
34566;BME280;20803;42.676;26.348;2024-03-02T10:23:40;98333.78;;;12.17;100.00
34566;BME280;20803;42.676;26.348;2024-03-02T10:26:18;98323.31;;;12.21;100.00
34566;BME280;20803;42.676;26.348;2024-03-02T10:28:47;98320.81;;;12.27;100.00
34566;BME280;20803;42.676;26.348;2024-03-02T10:31:13;98320.72;;;12.30;100.00
34566;BME280;20803;42.676;26.348;2024-03-02T10:33:39;98325.66;;;12.06;100.00
34566;BME280;20803;42.676;26.348;2024-03-02T10:36:05;98318.66;;;11.98;100.00
34566;BME280;20803;42.676;26.348;2024-03-02T10:38:31;98311.63;;;11.94;100.00
34566;BME280;20803;42.676;26.348;2024-03-02T10:40:58;98309.75;;;12.07;100.00
34566;BME280;20803;42.676;26.348;2024-03-02T10:43:25;98302.00;;;11.78;100.00
34566;BME280;20803;42.676;26.348;2024-03-02T10:45:52;98294.94;;;11.74;100.00
34566;BME280;20803;42.676;26.348;2024-03-02T10:48:19;98294.50;;;11.75;100.00
34566;BME280;20803;42.676;26.348;2024-03-02T10:50:45;98286.16;;;11.75;100.00
34566;BME280;20803;42.676;26.348;2024-03-02T10:53:10;98288.34;;;11.84;100.00
34566;BME280;20803;42.676;26.348;2024-03-02T10:55:36;98297.34;;;11.92;100.00
34566;BME280;20803;42.676;26.348;2024-03-02T10:58:04;98290.03;;;11.98;100.00
34566;BME280;20803;42.676;26.348;2024-03-02T11:00:33;98286.19;;;11.92;100.00
34566;BME280;20803;42.676;26.348;2024-03-02T11:03:06;98283.81;;;11.74;100.00
34566;BME280;20803;42.676;26.348;2024-03-02T11:05:43;98280.78;;;11.85;100.00
34566;BME280;20803;42.676;26.348;2024-03-02T11:08:13;98263.28;;;11.84;100.00
34566;BME280;20803;42.676;26.348;2024-03-02T11:13:17;98278.28;;;11.90;100.00
34566;BME280;20803;42.676;26.348;2024-03-02T11:15:46;98267.41;;;11.96;100.00
34566;BME280;20803;42.676;26.348;2024-03-02T11:18:12;98266.72;;;11.92;100.00
34566;BME280;20803;42.676;26.348;2024-03-02T11:20:39;98259.56;;;11.91;100.00
34566;BME280;20803;42.676;26.348;2024-03-02T11:23:09;98254.63;;;11.98;100.00
34566;BME280;20803;42.676;26.348;2024-03-02T11:25:35;98251.94;;;12.11;100.00
34566;BME280;20803;42.676;26.348;2024-03-02T11:28:07;98249.69;;;12.06;100.00
34566;BME280;20803;42.676;26.348;2024-03-02T11:33:07;98250.91;;;12.21;100.00
34566;BME280;20803;42.676;26.348;2024-03-02T11:35:36;98248.13;;;12.21;100.00
34566;BME280;20803;42.676;26.348;2024-03-02T11:38:06;98234.63;;;12.19;100.00
34566;BME280;20803;42.676;26.348;2024-03-02T11:40:32;98245.06;;;12.15;100.00
34566;BME280;20803;42.676;26.348;2024-03-02T11:42:59;98242.22;;;12.19;100.00
34566;BME280;20803;42.676;26.348;2024-03-02T11:45:28;98232.44;;;12.27;100.00
34566;BME280;20803;42.676;26.348;2024-03-02T11:47:56;98228.09;;;12.42;100.00
34566;BME280;20803;42.676;26.348;2024-03-02T11:50:41;98229.38;;;12.54;100.00
34566;BME280;20803;42.676;26.348;2024-03-02T11:53:08;98228.34;;;12.48;100.00
34566;BME280;20803;42.676;26.348;2024-03-02T11:55:36;98243.13;;;12.45;100.00
34566;BME280;20803;42.676;26.348;2024-03-02T11:58:05;98232.28;;;12.34;100.00
34566;BME280;20803;42.676;26.348;2024-03-02T12:00:30;98217.75;;;12.43;100.00
34566;BME280;20803;42.676;26.348;2024-03-02T12:03:04;98208.16;;;12.44;100.00
34566;BME280;20803;42.676;26.348;2024-03-02T12:05:31;98211.00;;;12.56;100.00
34566;BME280;20803;42.676;26.348;2024-03-02T12:10:23;98205.44;;;12.40;100.00
34566;BME280;20803;42.676;26.348;2024-03-02T12:12:55;98224.97;;;12.24;100.00
34566;BME280;20803;42.676;26.348;2024-03-02T12:15:31;98217.22;;;12.15;100.00
34566;BME280;20803;42.676;26.348;2024-03-02T12:17:59;98223.03;;;12.21;100.00
34566;BME280;20803;42.676;26.348;2024-03-02T12:20:27;98224.97;;;12.24;100.00
34566;BME280;20803;42.676;26.348;2024-03-02T12:22:55;98228.63;;;12.37;100.00
34566;BME280;20803;42.676;26.348;2024-03-02T12:25:22;98227.13;;;12.33;100.00
34566;BME280;20803;42.676;26.348;2024-03-02T12:27:50;98223.66;;;12.29;100.00
34566;BME280;20803;42.676;26.348;2024-03-02T12:30:17;98224.63;;;12.22;100.00
34566;BME280;20803;42.676;26.348;2024-03-02T12:32:42;98215.56;;;12.18;100.00
34566;BME280;20803;42.676;26.348;2024-03-02T12:35:10;98222.88;;;12.28;100.00
34566;BME280;20803;42.676;26.348;2024-03-02T12:37:49;98217.66;;;12.30;100.00
34566;BME280;20803;42.676;26.348;2024-03-02T12:40:16;98208.41;;;12.33;100.00
34566;BME280;20803;42.676;26.348;2024-03-02T12:42:44;98219.47;;;12.37;100.00
34566;BME280;20803;42.676;26.348;2024-03-02T12:45:10;98216.41;;;12.47;100.00
34566;BME280;20803;42.676;26.348;2024-03-02T12:47:37;98214.25;;;12.55;100.00
34566;BME280;20803;42.676;26.348;2024-03-02T12:50:04;98218.38;;;12.63;100.00
34566;BME280;20803;42.676;26.348;2024-03-02T12:52:30;98222.06;;;12.60;100.00